Time;durP1;ratioP1;P1;durP2;ratioP2;P2;SDS_P1;SDS_P2;PMS_P1;PMS_P2;Temp;Humidity;BMP_temperature;BMP_pressure;BME280_temperature;BME280_humidity;BME280_pressure;Samples;Min_cycle;Max_cycle;Signal;HPM_P1;HPM_P2
2022/05/29 00:01:35;;;;;;;4.73;2.40;;;14.80;97.10;;;;;;5081403;28;20446;-85
2022/05/29 00:04:02;;;;;;;6.20;2.13;;;14.80;96.70;;;;;;5094211;28;20500;-84
2022/05/29 00:06:30;;;;;;;6.40;2.53;;;14.90;96.80;;;;;;5093330;28;20473;-85
2022/05/29 00:08:58;;;;;;;5.57;2.10;;;14.80;96.70;;;;;;5092198;28;20441;-84
2022/05/29 00:11:25;;;;;;;4.07;2.33;;;15.00;96.40;;;;;;5090445;28;20483;-86
2022/05/29 00:13:52;;;;;;;4.30;2.40;;;15.10;96.00;;;;;;5084410;28;20451;-86
2022/05/29 00:16:18;;;;;;;4.23;2.00;;;15.10;96.10;;;;;;5086609;28;20943;-86
2022/05/29 00:18:47;;;;;;;6.93;2.60;;;15.20;95.90;;;;;;5080450;28;20532;-86
2022/05/29 00:21:14;;;;;;;3.93;2.23;;;15.10;95.50;;;;;;5087461;28;20962;-84
2022/05/29 00:23:43;;;;;;;8.33;2.53;;;15.20;95.70;;;;;;5093777;28;20559;-85
2022/05/29 00:29:41;;;;;;;;;;;;;;;;;;;;;
2022/05/29 00:40:00;;;;;;;5.40;2.77;;;15.20;95.30;;;;;;4885799;29;20422;-88
2022/05/29 00:46:00;;;;;;;6.43;2.63;;;15.10;95.30;;;;;;4957793;29;20471;-90
2022/05/29 00:58:44;;;;;;;;;;;;;;;;;;;;;
2022/05/29 01:05:17;;;;;;;9.67;2.53;;;14.90;95.40;;;;;;5004309;28;20469;-88
2022/05/29 01:08:32;;;;;;;6.30;2.40;;;14.80;95.90;;;;;;4986679;28;20454;-88
2022/05/29 01:11:50;;;;;;;;;;;;;;;;;;;;;
2022/05/29 01:14:46;;;;;;;6.37;2.60;;;14.90;95.00;;;;;;5051515;28;20458;-88
2022/05/29 01:27:51;;;;;;;8.10;2.30;;;14.90;95.20;;;;;;5022320;28;20450;-87
2022/05/29 01:30:49;;;;;;;4.50;2.37;;;14.90;95.30;;;;;;5060172;28;20485;-88
2022/05/29 01:33:49;;;;;;;5.50;2.00;;;14.70;95.50;;;;;;5063336;28;20421;-88
2022/05/29 01:36:29;;;;;;;3.70;1.93;;;14.60;95.90;;;;;;5056174;28;20479;-87
2022/05/29 01:42:54;;;;;;;;;;;;;;;;;;;;;
2022/05/29 01:46:30;;;;;;;;;;;;;;;;;;;;;
2022/05/29 01:49:49;;;;;;;;;;;;;;;;;;;;;
2022/05/29 01:52:55;;;;;;;5.23;2.20;;;14.40;96.00;;;;;;5071887;28;20478;-87
2022/05/29 01:55:49;;;;;;;6.10;2.80;;;14.40;96.20;;;;;;5057804;28;20440;-87
2022/05/29 01:59:00;;;;;;;5.60;2.67;;;14.30;96.40;;;;;;5057716;28;20915;-87
2022/05/29 02:02:15;;;;;;;4.17;2.20;;;14.30;96.30;;;;;;5033826;28;20433;-89
2022/05/29 02:05:05;;;;;;;9.33;2.07;;;14.40;95.20;;;;;;5071058;28;20431;-89
2022/05/29 02:08:00;;;;;;;4.90;2.10;;;14.50;94.50;;;;;;5068313;28;20577;-88
2022/05/29 02:11:10;;;;;;;6.33;2.83;;;14.30;94.70;;;;;;5056887;28;20439;-89
2022/05/29 02:17:33;;;;;;;5.20;2.50;;;14.20;94.90;;;;;;5044776;28;20430;-88
2022/05/29 02:20:26;;;;;;;6.83;2.10;;;14.20;95.40;;;;;;5001406;28;20414;-88
2022/05/29 02:29:07;;;;;;;7.80;2.20;;;14.40;96.20;;;;;;5051656;28;20520;-90
2022/05/29 02:32:11;;;;;;;3.97;1.83;;;14.50;96.20;;;;;;5038719;28;20502;-88
2022/05/29 02:38:02;;;;;;;3.60;1.90;;;14.30;96.60;;;;;;5075728;28;20420;-88
2022/05/29 02:44:34;;;;;;;5.40;2.00;;;14.30;95.60;;;;;;5044912;28;20455;-88
2022/05/29 02:47:55;;;;;;;;;;;;;;;;;;;;;
2022/05/29 02:51:00;;;;;;;3.97;2.20;;;14.30;97.40;;;;;;5021664;28;20441;-89
2022/05/29 02:53:57;;;;;;;;;;;;;;;;;;;;;
2022/05/29 02:56:45;;;;;;;5.50;2.40;;;14.40;97.80;;;;;;5066606;28;20424;-87
2022/05/29 03:02:37;;;;;;;5.77;2.20;;;14.30;97.90;;;;;;5070074;28;20414;-89
2022/05/29 03:05:36;;;;;;;8.20;2.40;;;14.20;98.20;;;;;;5059626;28;20445;-90
2022/05/29 03:15:08;;;;;;;7.70;2.70;;;14.10;97.40;;;;;;5053765;28;20414;-89
2022/05/29 03:24:12;;;;;;;5.57;2.40;;;13.80;98.50;;;;;;5067547;28;20467;-87
2022/05/29 03:26:56;;;;;;;7.43;2.00;;;13.60;98.40;;;;;;4997965;28;20486;-88
2022/05/29 03:29:31;;;;;;;4.70;2.33;;;13.70;98.60;;;;;;5051400;28;20926;-87
2022/05/29 03:32:24;;;;;;;9.63;2.73;;;13.60;98.50;;;;;;5059451;28;20485;-87
2022/05/29 03:35:14;;;;;;;4.27;2.00;;;13.40;99.00;;;;;;5059023;28;20437;-89
2022/05/29 03:38:18;;;;;;;;;;;;;;;;;;;;;
2022/05/29 03:41:05;;;;;;;6.27;2.30;;;13.70;98.50;;;;;;5057670;28;20934;-88
2022/05/29 03:43:40;;;;;;;5.97;2.80;;;13.60;98.30;;;;;;5062482;28;20429;-89
2022/05/29 03:46:29;;;;;;;6.77;2.47;;;13.50;98.70;;;;;;5063569;28;20456;-89
2022/05/29 03:49:20;;;;;;;4.63;1.67;;;13.40;99.00;;;;;;5062155;28;20522;-88
2022/05/29 03:55:10;;;;;;;;;;;;;;;;;;;;;
2022/05/29 03:57:47;;;;;;;6.10;2.10;;;13.40;98.50;;;;;;5062561;28;20758;-88
2022/05/29 04:00:32;;;;;;;6.37;2.60;;;13.50;98.40;;;;;;5069314;28;20411;-87
2022/05/29 04:06:10;;;;;;;7.83;2.23;;;13.40;98.90;;;;;;5058976;28;20482;-88
2022/05/29 04:14:40;;;;;;;7.20;2.30;;;13.30;99.60;;;;;;5062685;28;20389;-88
2022/05/29 04:17:23;;;;;;;6.23;2.27;;;13.10;99.90;;;;;;5059746;28;20509;-89
2022/05/29 04:19:59;;;;;;;7.73;2.30;;;12.90;99.90;;;;;;5068055;28;20453;-88
2022/05/29 04:22:41;;;;;;;4.60;2.60;;;12.90;99.90;;;;;;5068102;28;20417;-89
2022/05/29 04:25:22;;;;;;;6.47;2.40;;;12.90;99.90;;;;;;5060953;28;20894;-88
2022/05/29 04:30:49;;;;;;;6.93;2.70;;;13.10;99.90;;;;;;5065342;28;20481;-89
2022/05/29 04:33:42;;;;;;;4.53;2.60;;;12.90;99.90;;;;;;5070264;28;20492;-89
2022/05/29 04:36:24;;;;;;;3.70;1.97;;;12.90;99.90;;;;;;5059110;28;20795;-87
2022/05/29 04:39:21;;;;;;;7.00;2.53;;;12.80;99.90;;;;;;5060622;28;20504;-89
2022/05/29 04:42:06;;;;;;;6.90;2.60;;;12.60;99.90;;;;;;5059133;28;20430;-88
2022/05/29 04:44:42;;;;;;;6.13;2.67;;;12.70;99.90;;;;;;5059524;28;20422;-88
2022/05/29 04:47:26;;;;;;;6.57;3.03;;;12.90;99.90;;;;;;5063284;28;20475;-88
2022/05/29 04:50:27;;;;;;;;;;;;;;;;;;;;;
2022/05/29 05:00:11;;;;;;;8.57;3.70;;;12.40;99.90;;;;;;5025767;28;20804;-88
2022/05/29 05:03:21;;;;;;;;;;;;;;;;;;;;;
2022/05/29 05:06:28;;;;;;;6.17;3.30;;;11.80;99.90;;;;;;5058152;28;20442;-88
2022/05/29 05:12:43;;;;;;;5.80;3.77;;;11.60;99.90;;;;;;5037789;28;20461;-88
2022/05/29 05:21:57;;;;;;;7.90;3.07;;;12.00;99.90;;;;;;4985174;28;20413;-89
2022/05/29 05:24:55;;;;;;;6.43;3.17;;;12.20;99.90;;;;;;5066116;28;20461;-89
2022/05/29 05:39:52;;;;;;;5.20;2.90;;;12.20;99.90;;;;;;5057163;28;20506;-89
2022/05/29 05:46:05;;;;;;;5.50;2.90;;;12.30;99.90;;;;;;5044717;28;20518;-89
2022/05/29 05:49:00;;;;;;;6.17;3.40;;;12.30;99.90;;;;;;5056016;28;20484;-88
2022/05/29 05:51:46;;;;;;;6.93;2.53;;;12.40;99.90;;;;;;5057966;28;20426;-89
2022/05/29 06:00:39;;;;;;;13.33;3.10;;;12.30;99.90;;;;;;5053705;28;20521;-87
2022/05/29 06:03:30;;;;;;;6.57;2.73;;;12.50;99.90;;;;;;5059315;28;20459;-87
2022/05/29 06:06:27;;;;;;;7.50;2.60;;;12.80;99.90;;;;;;5066187;28;20474;-89
2022/05/29 06:09:25;;;;;;;;;;;;;;;;;;;;;
2022/05/29 06:12:21;;;;;;;6.20;2.73;;;12.70;99.90;;;;;;5064150;28;20854;-89
2022/05/29 06:21:43;;;;;;;6.00;2.73;;;13.00;99.90;;;;;;5035439;28;20498;-89
2022/05/29 06:24:26;;;;;;;3.60;2.20;;;13.10;99.90;;;;;;5059308;28;20433;-88
2022/05/29 06:26:57;;;;;;;4.97;2.33;;;13.30;99.90;;;;;;5103064;23;20459;-84
2022/05/29 06:29:24;;;;;;;7.27;2.60;;;13.40;99.90;;;;;;5095975;28;20394;-86
2022/05/29 06:31:53;;;;;;;7.00;2.30;;;13.30;99.90;;;;;;5083490;28;20445;-86
2022/05/29 06:34:22;;;;;;;3.70;1.97;;;13.50;99.90;;;;;;5080306;28;20958;-85
2022/05/29 06:36:49;;;;;;;5.50;2.50;;;13.30;99.90;;;;;;5081110;28;20436;-85
2022/05/29 06:39:16;;;;;;;8.80;2.90;;;13.50;99.90;;;;;;5078534;28;20461;-86
2022/05/29 06:41:43;;;;;;;6.47;2.40;;;13.60;99.90;;;;;;5083551;28;20450;-84
2022/05/29 06:44:13;;;;;;;6.03;2.50;;;13.50;99.90;;;;;;5087002;28;20424;-86
2022/05/29 06:46:40;;;;;;;4.40;2.23;;;13.40;99.90;;;;;;5084776;28;20541;-85
2022/05/29 06:49:07;;;;;;;6.03;2.50;;;13.40;99.90;;;;;;5091790;28;20446;-86
2022/05/29 06:51:35;;;;;;;5.40;2.30;;;13.60;99.90;;;;;;5093096;28;20454;-84
2022/05/29 06:54:04;;;;;;;4.50;2.17;;;13.70;99.90;;;;;;5094231;28;20476;-84
2022/05/29 06:56:31;;;;;;;6.90;2.30;;;13.60;99.90;;;;;;5085400;28;20483;-86
2022/05/29 06:58:59;;;;;;;5.30;2.23;;;13.60;99.90;;;;;;5079177;28;20532;-86
2022/05/29 07:07:00;;;;;;;4.50;2.40;;;13.80;99.90;;;;;;5079710;28;20518;-84
2022/05/29 07:09:28;;;;;;;5.50;2.23;;;13.90;99.90;;;;;;5080261;28;20812;-85
2022/05/29 07:12:00;;;;;;;5.70;2.47;;;14.00;99.90;;;;;;5079737;28;20514;-84
2022/05/29 07:14:27;;;;;;;6.83;2.57;;;14.00;99.90;;;;;;5079602;28;20481;-83
2022/05/29 07:16:54;;;;;;;4.13;1.97;;;14.10;99.90;;;;;;5081246;28;20563;-85
2022/05/29 07:19:24;;;;;;;5.83;2.30;;;14.20;99.90;;;;;;5082329;28;20455;-83
2022/05/29 07:21:52;;;;;;;7.13;2.70;;;14.20;99.90;;;;;;5082850;28;20451;-84
2022/05/29 07:24:21;;;;;;;6.33;3.97;;;14.30;99.90;;;;;;5082418;28;20474;-84
2022/05/29 07:26:47;;;;;;;4.77;1.97;;;14.20;99.90;;;;;;5082050;28;20479;-86
2022/05/29 07:29:17;;;;;;;5.07;2.20;;;14.30;99.90;;;;;;5082281;28;20924;-86
2022/05/29 07:31:47;;;;;;;6.53;1.90;;;14.40;99.90;;;;;;5081944;28;20936;-85
2022/05/29 07:34:13;;;;;;;3.80;1.90;;;14.50;99.90;;;;;;5081504;28;20460;-86
2022/05/29 07:36:40;;;;;;;6.07;1.97;;;14.70;99.90;;;;;;5082274;28;20451;-85
2022/05/29 07:39:11;;;;;;;6.33;2.23;;;14.80;99.90;;;;;;5082878;28;20489;-85
2022/05/29 07:44:24;;;;;;;4.90;2.33;;;14.70;99.90;;;;;;5099527;28;20428;-84
2022/05/29 07:46:51;;;;;;;7.33;2.20;;;14.60;99.90;;;;;;5087453;28;20593;-85
2022/05/29 07:49:17;;;;;;;4.20;2.20;;;14.60;99.90;;;;;;5093999;28;20480;-85
2022/05/29 07:51:44;;;;;;;6.53;1.97;;;14.60;99.90;;;;;;5094136;28;20429;-85
2022/05/29 07:54:11;;;;;;;3.67;1.23;;;14.40;99.90;;;;;;5092878;28;20447;-81
2022/05/29 07:56:40;;;;;;;5.27;2.63;;;14.20;99.90;;;;;;5099632;28;20481;-83
2022/05/29 07:59:07;;;;;;;6.43;2.33;;;14.10;99.90;;;;;;5096199;28;20439;-85
2022/05/29 08:01:34;;;;;;;5.40;1.70;;;14.20;99.90;;;;;;5085701;28;20462;-85
2022/05/29 08:04:01;;;;;;;5.97;2.10;;;14.10;99.90;;;;;;5089413;28;20459;-84
2022/05/29 08:06:30;;;;;;;5.53;1.90;;;14.10;99.90;;;;;;5091836;28;20809;-84
2022/05/29 08:08:59;;;;;;;6.33;2.20;;;14.00;99.90;;;;;;5091220;28;20457;-85
2022/05/29 08:11:26;;;;;;;7.40;2.37;;;14.00;99.90;;;;;;5082158;28;20809;-85
2022/05/29 08:13:54;;;;;;;4.90;1.77;;;14.00;99.90;;;;;;5081345;28;20638;-85
2022/05/29 08:16:21;;;;;;;4.20;2.10;;;14.00;99.90;;;;;;5081800;28;20475;-85
2022/05/29 08:18:48;;;;;;;7.03;2.27;;;14.20;99.90;;;;;;5082971;28;20435;-85
2022/05/29 08:21:15;;;;;;;4.50;2.47;;;14.30;99.90;;;;;;5086506;28;20428;-85
2022/05/29 08:30:37;;;;;;;5.33;2.03;;;14.30;99.90;;;;;;5085895;28;20431;-85
2022/05/29 08:31:59;;;;;;;5.53;2.57;;;13.90;99.90;;;;;;5081918;28;20534;-85
2022/05/29 08:34:26;;;;;;;3.80;1.60;;;14.20;99.90;;;;;;5082007;28;20573;-86
2022/05/29 08:36:55;;;;;;;7.40;2.90;;;14.40;99.90;;;;;;5080940;28;20562;-86
2022/05/29 08:39:22;;;;;;;5.07;2.00;;;14.30;99.90;;;;;;5080928;28;20428;-86
2022/05/29 08:41:52;;;;;;;6.30;2.63;;;14.70;99.90;;;;;;5081538;28;20463;-85
2022/05/29 08:44:25;;;;;;;6.77;2.57;;;14.80;99.90;;;;;;5083188;28;20396;-85
2022/05/29 08:47:00;;;;;;;5.77;2.33;;;15.00;99.90;;;;;;5088056;28;20481;-85
2022/05/29 08:49:49;;;;;;;5.50;2.37;;;15.30;99.90;;;;;;5083005;28;20447;-86
2022/05/29 08:52:39;;;;;;;6.83;2.53;;;14.70;99.90;;;;;;5083894;28;20442;-86
2022/05/29 08:55:18;;;;;;;7.27;2.10;;;14.80;99.90;;;;;;5085373;28;20451;-86
2022/05/29 08:57:58;;;;;;;8.13;3.10;;;14.90;99.90;;;;;;5087256;28;20901;-86
2022/05/29 09:00:38;;;;;;;10.60;2.50;;;14.70;99.90;;;;;;5089398;28;20464;-85
2022/05/29 09:03:25;;;;;;;6.70;2.87;;;14.80;99.90;;;;;;5092476;28;20487;-85
2022/05/29 09:05:58;;;;;;;4.63;2.53;;;14.50;99.90;;;;;;5093834;28;20442;-85
2022/05/29 09:08:39;;;;;;;6.67;2.63;;;14.50;99.90;;;;;;5094544;28;20458;-86
2022/05/29 09:11:10;;;;;;;6.10;2.40;;;14.60;99.90;;;;;;5093233;28;20801;-87
2022/05/29 09:13:45;;;;;;;6.23;2.43;;;14.70;99.90;;;;;;5086645;28;20478;-85
2022/05/29 09:16:23;;;;;;;7.07;2.60;;;14.40;99.90;;;;;;5093978;28;20503;-85
2022/05/29 09:19:06;;;;;;;13.07;3.40;;;14.40;99.90;;;;;;5084617;28;20429;-87
2022/05/29 09:21:43;;;;;;;6.27;2.83;;;14.60;99.90;;;;;;5082957;28;20436;-86
2022/05/29 09:24:23;;;;;;;10.83;3.27;;;14.60;99.90;;;;;;5089035;28;20431;-86
2022/05/29 09:26:50;;;;;;;6.60;2.27;;;14.80;99.90;;;;;;5083268;28;20491;-87
2022/05/29 09:29:30;;;;;;;8.57;2.67;;;14.80;99.90;;;;;;5082452;28;20560;-87
2022/05/29 09:32:07;;;;;;;9.13;2.70;;;14.90;99.90;;;;;;5081087;28;20935;-86
2022/05/29 09:34:39;;;;;;;4.73;2.27;;;14.90;99.90;;;;;;5080205;28;20464;-85
2022/05/29 09:40:05;;;;;;;5.30;2.47;;;14.50;99.90;;;;;;5083478;28;21013;-86
2022/05/29 09:42:54;;;;;;;7.77;2.50;;;14.70;99.90;;;;;;5081186;28;21009;-85
2022/05/29 09:45:30;;;;;;;9.43;2.53;;;14.70;99.90;;;;;;5081625;28;20493;-86
2022/05/29 09:50:56;;;;;;;7.73;2.60;;;14.00;99.90;;;;;;5085724;28;20421;-87
2022/05/29 09:53:27;;;;;;;5.30;2.07;;;14.20;99.90;;;;;;5079519;28;20486;-86
2022/05/29 09:56:01;;;;;;;6.00;2.00;;;14.40;99.90;;;;;;5081082;28;20484;-84
2022/05/29 09:58:37;;;;;;;8.47;2.47;;;14.50;99.90;;;;;;5080532;28;20429;-85
2022/05/29 10:01:07;;;;;;;2.70;1.10;;;14.60;99.90;;;;;;5079199;28;20410;-83
2022/05/29 10:03:49;;;;;;;6.37;2.70;;;14.80;99.90;;;;;;5079389;28;20436;-84
2022/05/29 10:06:23;;;;;;;6.80;3.00;;;14.70;99.90;;;;;;5080993;28;20489;-87
2022/05/29 10:08:53;;;;;;;6.50;3.30;;;14.70;99.90;;;;;;5077497;28;20480;-86
2022/05/29 10:11:22;;;;;;;12.57;2.90;;;14.60;99.90;;;;;;5077914;28;20426;-86
2022/05/29 10:13:51;;;;;;;8.60;3.00;;;14.50;99.90;;;;;;5079131;28;20535;-86
2022/05/29 10:16:33;;;;;;;4.50;1.97;;;14.40;99.90;;;;;;5081191;28;20440;-85
2022/05/29 10:19:03;;;;;;;8.40;2.37;;;14.10;99.90;;;;;;5083212;28;20423;-86
2022/05/29 10:21:32;;;;;;;5.87;2.37;;;14.10;99.90;;;;;;5086310;28;20432;-86
2022/05/29 10:24:14;;;;;;;5.93;2.60;;;14.10;99.90;;;;;;5085502;28;20424;-85
2022/05/29 10:26:48;;;;;;;4.60;1.90;;;14.00;99.90;;;;;;5081252;28;20526;-85
2022/05/29 10:29:25;;;;;;;5.00;1.80;;;14.10;99.90;;;;;;5089998;28;20412;-86
2022/05/29 10:31:52;;;;;;;9.27;1.97;;;14.20;99.90;;;;;;5097339;28;20425;-85
2022/05/29 10:34:26;;;;;;;5.03;2.13;;;14.10;99.90;;;;;;5088201;28;20512;-87
2022/05/29 10:36:53;;;;;;;6.60;2.50;;;14.10;99.90;;;;;;5095245;28;20455;-86
2022/05/29 10:39:23;;;;;;;5.73;2.30;;;14.40;99.90;;;;;;5092026;28;20431;-85
2022/05/29 10:41:52;;;;;;;8.60;2.80;;;14.70;99.90;;;;;;5086350;28;20459;-86
2022/05/29 10:44:38;;;;;;;7.93;3.00;;;14.90;99.90;;;;;;5086279;28;20963;-86
2022/05/29 10:47:10;;;;;;;5.83;2.57;;;14.90;99.90;;;;;;5083141;28;20444;-85
2022/05/29 10:49:44;;;;;;;8.33;3.20;;;14.70;99.90;;;;;;5092811;28;20434;-85
2022/05/29 10:52:46;;;;;;;12.50;3.53;;;14.50;99.90;;;;;;5088396;28;20433;-85
2022/05/29 10:55:25;;;;;;;4.53;2.10;;;14.20;99.90;;;;;;5089172;28;20480;-84
2022/05/29 10:58:18;;;;;;;8.60;2.73;;;14.20;99.90;;;;;;5090891;28;20497;-86
2022/05/29 11:00:56;;;;;;;5.73;2.30;;;14.10;99.90;;;;;;5077830;28;20871;-86
2022/05/29 11:03:52;;;;;;;8.03;2.47;;;14.10;99.90;;;;;;5085732;28;20447;-86
2022/05/29 11:06:56;;;;;;;4.40;1.80;;;14.00;99.90;;;;;;5084203;28;20477;-85
2022/05/29 11:09:53;;;;;;;4.20;2.43;;;14.30;99.90;;;;;;5085732;28;20455;-85
2022/05/29 11:12:31;;;;;;;4.03;2.00;;;14.50;99.90;;;;;;5088069;28;20420;-86
2022/05/29 11:15:16;;;;;;;4.70;1.77;;;14.50;99.90;;;;;;5090586;28;20509;-86
2022/05/29 11:17:51;;;;;;;4.93;2.13;;;14.80;99.90;;;;;;5092362;28;20498;-86
2022/05/29 11:20:50;;;;;;;3.97;1.57;;;14.90;99.90;;;;;;5086692;28;20417;-85
2022/05/29 11:23:32;;;;;;;4.23;1.67;;;14.60;99.90;;;;;;5087216;28;20832;-85
2022/05/29 11:26:06;;;;;;;4.30;1.27;;;14.60;99.90;;;;;;5094403;28;20470;-86
2022/05/29 11:29:04;;;;;;;3.37;1.57;;;14.70;99.30;;;;;;5093269;28;20458;-83
2022/05/29 11:31:51;;;;;;;3.40;1.60;;;13.90;98.60;;;;;;5098349;28;20396;-84
2022/05/29 11:34:30;;;;;;;4.10;0.90;;;14.10;98.90;;;;;;5094763;28;20453;-84
2022/05/29 11:37:21;;;;;;;4.13;1.20;;;13.90;97.80;;;;;;5085138;28;20475;-84
2022/05/29 11:39:55;;;;;;;5.00;1.80;;;14.00;98.40;;;;;;5084628;28;20480;-85
2022/05/29 11:42:26;;;;;;;5.00;1.60;;;14.30;98.50;;;;;;5084663;28;20487;-86
2022/05/29 11:44:58;;;;;;;4.43;1.40;;;14.60;98.00;;;;;;5086766;28;20462;-87
2022/05/29 11:53:17;;;;;;;5.23;1.50;;;14.60;97.30;;;;;;5085185;28;20420;-87
2022/05/29 11:55:48;;;;;;;5.60;2.00;;;14.90;96.40;;;;;;5088549;28;20418;-84
2022/05/29 11:58:21;;;;;;;4.03;1.50;;;15.30;95.90;;;;;;5088366;28;20435;-85
2022/05/29 12:00:53;;;;;;;5.10;1.80;;;15.50;95.10;;;;;;5089366;28;20496;-85
2022/05/29 12:03:32;;;;;;;5.23;1.73;;;15.50;95.40;;;;;;5090518;28;20450;-85
2022/05/29 12:06:06;;;;;;;5.40;1.67;;;15.40;94.20;;;;;;5084958;28;20475;-86
2022/05/29 12:08:45;;;;;;;8.70;2.20;;;15.10;94.80;;;;;;5085438;28;20446;-87
2022/05/29 12:11:26;;;;;;;5.33;2.10;;;15.10;94.90;;;;;;5088405;28;20881;-87
2022/05/29 12:14:00;;;;;;;3.37;1.50;;;15.10;94.60;;;;;;5089686;28;20461;-86
2022/05/29 12:16:30;;;;;;;4.10;1.63;;;15.10;95.00;;;;;;5084959;28;20497;-87
2022/05/29 12:19:00;;;;;;;3.50;1.50;;;14.80;95.20;;;;;;5086574;28;20973;-85
2022/05/29 12:21:33;;;;;;;4.67;1.90;;;14.80;95.90;;;;;;5088465;28;20520;-85
2022/05/29 12:24:02;;;;;;;5.27;2.13;;;14.80;97.50;;;;;;5094961;28;20437;-85
2022/05/29 12:26:41;;;;;;;4.93;1.87;;;14.80;98.90;;;;;;5106586;23;20473;-87
2022/05/29 12:29:13;;;;;;;4.57;2.10;;;14.70;99.10;;;;;;5060063;28;20511;-89
2022/05/29 12:31:48;;;;;;;6.60;2.20;;;14.80;99.50;;;;;;5060888;28;20381;-89
2022/05/29 12:34:26;;;;;;;6.00;2.23;;;14.60;99.90;;;;;;5062969;28;20558;-90
2022/05/29 12:37:29;;;;;;;6.70;2.63;;;14.50;99.90;;;;;;5060125;28;20470;-89
2022/05/29 12:40:39;;;;;;;4.93;2.13;;;14.70;99.90;;;;;;5044565;28;20921;-88
2022/05/29 12:43:41;;;;;;;5.30;2.87;;;14.80;99.50;;;;;;5053594;28;20405;-88
2022/05/29 12:46:28;;;;;;;8.67;2.67;;;15.10;99.60;;;;;;5050078;28;20452;-87
2022/05/29 12:49:30;;;;;;;5.63;2.20;;;15.10;99.80;;;;;;5057301;28;20416;-87
2022/05/29 12:52:17;;;;;;;5.90;2.20;;;14.90;99.30;;;;;;5060751;28;20503;-88
2022/05/29 12:55:12;;;;;;;5.13;2.10;;;15.00;99.10;;;;;;5057238;28;20472;-89
2022/05/29 12:58:19;;;;;;;5.50;1.90;;;15.00;99.00;;;;;;5057082;28;20478;-88
2022/05/29 13:01:16;;;;;;;5.83;2.30;;;15.20;98.30;;;;;;5056854;28;20512;-88
2022/05/29 13:04:25;;;;;;;4.30;1.90;;;15.20;98.20;;;;;;5060848;28;20434;-88
2022/05/29 13:10:30;;;;;;;4.70;1.87;;;14.90;97.00;;;;;;5057761;28;20478;-88
2022/05/29 13:13:07;;;;;;;3.40;1.40;;;14.50;97.50;;;;;;5061236;28;20458;-88
2022/05/29 13:15:53;;;;;;;4.00;2.30;;;14.40;97.90;;;;;;5067274;28;20467;-87
2022/05/29 13:32:24;;;;;;;5.07;1.60;;;14.80;98.00;;;;;;5093862;27;20894;-88
2022/05/29 13:35:52;;;;;;;4.07;1.27;;;15.40;94.80;;;;;;5093855;28;20443;-89
2022/05/29 13:38:59;;;;;;;4.20;1.80;;;15.50;96.00;;;;;;5077589;28;20560;-89
2022/05/29 13:45:01;;;;;;;2.80;1.30;;;15.60;95.70;;;;;;5077810;28;20478;-89
2022/05/29 13:47:56;;;;;;;3.60;1.50;;;15.50;95.70;;;;;;5076762;28;20476;-89
2022/05/29 13:51:02;;;;;;;4.27;1.70;;;15.60;95.20;;;;;;5076678;28;20539;-89
2022/05/29 13:53:48;;;;;;;4.43;1.60;;;15.80;92.10;;;;;;5077781;28;20475;-89
2022/05/29 14:55:03;;;;;;;3.17;1.10;;;14.30;99.50;;;;;;5007863;28;20537;-88
2022/05/29 15:12:25;;;;;;;;;;;;;;;;;;;;;
2022/05/29 15:29:23;;;;;;;4.47;1.73;;;17.50;89.90;;;;;;4980586;28;20499;-89
2022/05/29 15:35:41;;;;;;;6.17;1.87;;;18.10;85.50;;;;;;4903910;28;20538;-88
2022/05/29 15:49:35;;;;;;;4.23;1.80;;;18.80;82.60;;;;;;4983804;28;20540;-89
2022/05/29 16:02:56;;;;;;;5.20;2.33;;;18.10;85.60;;;;;;4792943;29;20550;-88
2022/05/29 16:16:17;;;;;;;5.30;2.00;;;16.60;85.80;;;;;;4936447;29;20788;-89
2022/05/29 16:19:11;;;;;;;3.40;1.43;;;16.80;86.40;;;;;;4917657;29;20432;-89
2022/05/29 16:22:25;;;;;;;6.63;2.07;;;16.40;86.00;;;;;;4902622;29;20856;-89
2022/05/29 16:25:18;;;;;;;9.70;2.07;;;16.20;86.70;;;;;;4889091;29;20564;-88
2022/05/29 16:28:14;;;;;;;4.33;2.40;;;16.50;85.50;;;;;;4963751;28;20477;-88
2022/05/29 16:30:54;;;;;;;10.20;2.20;;;17.00;83.40;;;;;;4966773;29;20940;-88
2022/05/29 16:33:37;;;;;;;5.40;2.30;;;16.90;82.60;;;;;;4962281;29;20449;-88
2022/05/29 16:55:08;;;;;;;5.00;1.80;;;16.20;83.00;;;;;;5002512;28;20436;-89
2022/05/29 17:12:09;;;;;;;5.27;1.90;;;15.80;79.10;;;;;;4882326;29;20445;-87
2022/05/29 17:15:07;;;;;;;5.90;2.97;;;15.80;79.40;;;;;;4843155;29;20471;-88
2022/05/29 17:17:57;;;;;;;4.87;2.17;;;15.90;78.90;;;;;;4982794;23;20508;-88
2022/05/29 17:20:54;;;;;;;6.83;2.00;;;16.20;76.60;;;;;;4982505;28;20456;-89
2022/05/29 17:23:37;;;;;;;8.30;2.10;;;16.10;76.40;;;;;;4979608;28;20988;-89
2022/05/29 17:26:25;;;;;;;5.70;1.70;;;16.30;76.30;;;;;;4992224;28;20555;-89
2022/05/29 17:29:32;;;;;;;5.40;1.93;;;16.20;76.50;;;;;;4980384;28;20585;-89
2022/05/29 17:32:21;;;;;;;5.63;2.17;;;16.10;76.90;;;;;;4985859;28;20451;-88
2022/05/29 17:38:31;;;;;;;10.53;1.80;;;16.30;76.90;;;;;;4996113;28;20470;-89
2022/05/29 17:41:33;;;;;;;8.20;2.00;;;16.20;76.30;;;;;;4997193;28;20476;-89
2022/05/29 17:44:10;;;;;;;6.20;2.10;;;16.40;77.30;;;;;;5002162;28;20547;-90
2022/05/29 17:47:08;;;;;;;6.50;2.07;;;16.00;77.30;;;;;;4995939;28;20501;-87
2022/05/29 17:55:51;;;;;;;6.83;1.90;;;15.50;83.70;;;;;;4941092;28;20451;-89
2022/05/29 17:58:24;;;;;;;4.70;1.97;;;15.60;86.30;;;;;;4988057;28;20430;-89
2022/05/29 18:00:58;;;;;;;3.70;1.70;;;15.40;86.30;;;;;;4995922;28;20476;-88
2022/05/29 18:03:32;;;;;;;5.67;2.03;;;15.40;87.70;;;;;;4993812;28;20457;-89
2022/05/29 18:06:03;;;;;;;7.67;2.53;;;15.20;88.70;;;;;;4982072;28;20656;-88
2022/05/29 18:08:38;;;;;;;6.17;2.30;;;15.20;88.90;;;;;;4981777;28;20478;-88
2022/05/29 18:11:20;;;;;;;4.83;2.00;;;15.10;87.00;;;;;;4982073;28;20890;-88
2022/05/29 18:13:50;;;;;;;3.60;2.00;;;15.10;86.20;;;;;;4981544;28;20474;-89
2022/05/29 18:16:19;;;;;;;4.03;2.03;;;15.20;84.50;;;;;;4981383;28;20410;-89
2022/05/29 18:18:51;;;;;;;5.00;2.30;;;15.10;84.50;;;;;;4981888;28;20431;-88
2022/05/29 18:21:19;;;;;;;5.70;2.77;;;15.00;85.00;;;;;;4985335;28;20487;-89
2022/05/29 18:23:58;;;;;;;6.70;2.80;;;15.10;86.90;;;;;;4995908;28;20445;-87
2022/05/29 18:26:34;;;;;;;5.27;3.47;;;15.10;88.70;;;;;;4991312;28;20471;-88
2022/05/29 18:29:04;;;;;;;6.87;2.30;;;15.20;90.00;;;;;;5025119;23;20612;-87
2022/05/29 18:31:32;;;;;;;5.60;2.00;;;15.20;90.30;;;;;;5010787;28;20529;-86
2022/05/29 18:34:05;;;;;;;5.83;1.97;;;15.20;90.40;;;;;;5003208;28;20457;-87
2022/05/29 18:36:32;;;;;;;6.20;2.47;;;15.20;90.10;;;;;;5015066;28;20510;-87
2022/05/29 18:38:59;;;;;;;4.70;2.30;;;15.20;90.20;;;;;;5007019;28;20997;-86
2022/05/29 18:41:26;;;;;;;6.40;2.87;;;15.20;90.70;;;;;;5011338;28;20548;-87
2022/05/29 18:43:53;;;;;;;6.93;2.10;;;15.20;91.00;;;;;;5005052;28;20513;-86
2022/05/29 18:46:21;;;;;;;8.57;4.67;;;15.10;91.30;;;;;;5019556;28;20442;-86
2022/05/29 18:48:47;;;;;;;6.20;2.30;;;15.10;91.10;;;;;;5020220;28;20454;-85
2022/05/29 18:51:17;;;;;;;7.60;3.90;;;14.90;91.60;;;;;;5007720;28;20440;-87
2022/05/29 18:53:44;;;;;;;6.07;2.53;;;14.90;91.40;;;;;;5009114;28;20403;-87
2022/05/29 18:56:11;;;;;;;6.83;2.77;;;14.90;91.60;;;;;;5019770;28;20432;-87
2022/05/29 18:58:39;;;;;;;4.70;2.77;;;14.80;91.70;;;;;;5019524;28;20513;-88
2022/05/29 19:01:08;;;;;;;4.70;2.50;;;14.80;92.10;;;;;;5014181;28;20486;-87
2022/05/29 19:03:36;;;;;;;6.83;3.17;;;14.70;92.10;;;;;;5019792;28;20455;-89
2022/05/29 19:06:10;;;;;;;7.03;3.50;;;14.80;93.10;;;;;;5008182;28;20455;-88
2022/05/29 19:08:38;;;;;;;6.00;3.10;;;14.70;93.70;;;;;;5006307;28;20570;-88
2022/05/29 19:11:05;;;;;;;6.53;2.80;;;14.60;94.60;;;;;;5006038;28;20566;-88
2022/05/29 19:13:33;;;;;;;6.47;3.73;;;14.60;95.30;;;;;;5006280;28;20480;-88
2022/05/29 19:16:07;;;;;;;6.70;3.97;;;14.60;95.60;;;;;;5005892;28;20463;-87
2022/05/29 19:18:34;;;;;;;9.73;4.40;;;14.60;96.00;;;;;;5002941;28;20482;-88
2022/05/29 19:21:01;;;;;;;5.50;2.93;;;14.50;96.40;;;;;;5005169;28;20488;-87
2022/05/29 19:23:28;;;;;;;7.57;3.03;;;14.30;96.70;;;;;;5014172;28;20450;-87
2022/05/29 19:26:03;;;;;;;6.80;2.60;;;14.10;97.20;;;;;;5009458;28;20539;-87
2022/05/29 19:28:31;;;;;;;4.40;2.53;;;14.20;97.80;;;;;;5004132;28;20448;-87
2022/05/29 19:30:58;;;;;;;6.13;2.93;;;14.20;97.60;;;;;;5003195;28;20458;-87
2022/05/29 19:33:25;;;;;;;6.77;3.50;;;14.00;97.80;;;;;;5004504;28;20998;-89
2022/05/29 19:35:56;;;;;;;5.63;2.67;;;13.90;98.10;;;;;;5004501;28;20432;-88
2022/05/29 19:38:23;;;;;;;4.23;2.40;;;13.90;98.30;;;;;;5005620;28;20959;-87
2022/05/29 19:41:01;;;;;;;8.20;2.83;;;13.80;98.80;;;;;;5009913;28;20456;-88
2022/05/29 19:43:47;;;;;;;7.23;3.17;;;13.70;99.30;;;;;;5017351;28;20501;-87
2022/05/29 19:46:41;;;;;;;4.20;2.70;;;13.70;99.80;;;;;;5012588;28;20424;-86
2022/05/29 19:49:15;;;;;;;6.23;2.90;;;13.60;99.90;;;;;;5011651;28;20432;-87
2022/05/29 19:51:45;;;;;;;5.83;2.67;;;13.50;99.90;;;;;;5008610;28;20433;-87
2022/05/29 19:54:21;;;;;;;5.77;2.50;;;13.50;99.90;;;;;;5006793;28;20887;-87
2022/05/29 19:57:07;;;;;;;4.93;2.83;;;13.60;99.90;;;;;;5007383;28;20543;-87
2022/05/29 19:59:37;;;;;;;5.70;3.20;;;13.50;99.90;;;;;;5004895;28;20466;-88